Time;durP1;ratioP1;P1;durP2;ratioP2;P2;SDS_P1;SDS_P2;PMS_P1;PMS_P2;Temp;Humidity;BMP_temperature;BMP_pressure;BME280_temperature;BME280_humidity;BME280_pressure;Samples;Min_cycle;Max_cycle;Signal;HPM_P1;HPM_P2
2023/12/25 00:02:16;;;;;;;0.95;0.70;;;;;;;;;;4954328;28;20055;-88
2023/12/25 00:04:53;;;;;;;0.68;0.60;;;;;;;;;;4935811;28;20043;-88
2023/12/25 00:07:24;;;;;;;0.85;0.60;;;;;;;;;;4959863;29;20044;-87
2023/12/25 00:09:59;;;;;;;1.10;0.70;;;;;;;;;;4960914;28;20095;-87
2023/12/25 00:12:45;;;;;;;1.02;0.65;;;;;;;;;;4972435;28;20027;-88
2023/12/25 00:15:23;;;;;;;0.98;0.68;;;;;;;;;;4957500;28;20027;-89
2023/12/25 00:17:54;;;;;;;0.88;0.60;;;;;;;;;;4955081;29;20028;-88
2023/12/25 00:20:29;;;;;;;1.15;0.70;;;;;;;;;;4958638;28;20039;-88
2023/12/25 00:22:57;;;;;;;1.05;0.50;;;;;;;;;;4978302;28;20039;-88
2023/12/25 00:25:26;;;;;;;0.70;0.47;;;;;;;;;;4962775;28;20030;-88
2023/12/25 00:28:05;;;;;;;1.13;0.60;;;;;;;;;;4976041;28;20034;-89
2023/12/25 00:30:41;;;;;;;1.77;0.70;;;;;;;;;;4962187;29;20047;-90
2023/12/25 00:33:20;;;;;;;0.82;0.60;;;;;;;;;;4957359;29;20042;-88
2023/12/25 00:36:04;;;;;;;2.70;0.73;;;;;;;;;;4964232;29;20042;-88
2023/12/25 00:38:54;;;;;;;0.77;0.50;;;;;;;;;;4962462;29;20043;-87
2023/12/25 00:41:33;;;;;;;;;;;;;;;;;;;;;
2023/12/25 00:44:08;;;;;;;1.10;0.63;;;;;;;;;;4955404;29;20075;-88
2023/12/25 00:46:40;;;;;;;0.70;0.50;;;;;;;;;;4953233;29;20094;-88
2023/12/25 00:49:21;;;;;;;0.40;0.40;;;;;;;;;;4974080;28;20043;-88
2023/12/25 00:51:47;;;;;;;;;;;;;;;;;;4955614;29;20049;-88
2023/12/25 00:54:29;;;;;;;0.60;0.40;;;;;;;;;;4961631;28;19918;-88
2023/12/25 00:57:21;;;;;;;0.57;0.50;;;;;;;;;;4942801;29;20051;-88
2023/12/25 00:59:47;;;;;;;0.47;0.47;;;;;;;;;;4973356;28;20031;-88
2023/12/25 01:02:12;;;;;;;1.13;0.60;;;;;;;;;;4949577;29;20055;-87
2023/12/25 01:04:46;;;;;;;0.80;0.50;;;;;;;;;;4959087;29;20578;-88
2023/12/25 01:07:40;;;;;;;0.80;0.57;;;;;;;;;;4953375;28;20482;-88
2023/12/25 01:10:15;;;;;;;0.80;0.50;;;;;;;;;;4962114;28;20054;-88
2023/12/25 01:12:54;;;;;;;0.52;0.45;;;;;;;;;;4957435;28;20074;-88
2023/12/25 01:15:30;;;;;;;0.82;0.55;;;;;;;;;;4962276;28;20043;-90
2023/12/25 01:18:24;;;;;;;0.73;0.50;;;;;;;;;;4954688;29;20040;-88
2023/12/25 01:20:57;;;;;;;0.95;0.50;;;;;;;;;;4977718;28;20066;-88
2023/12/25 01:23:35;;;;;;;0.60;0.50;;;;;;;;;;4958565;28;20152;-89
2023/12/25 01:26:08;;;;;;;0.82;0.60;;;;;;;;;;4963470;28;20055;-88
2023/12/25 01:28:49;;;;;;;0.77;0.60;;;;;;;;;;4942244;29;20046;-89
2023/12/25 01:31:20;;;;;;;0.63;0.60;;;;;;;;;;4952045;29;20036;-87
2023/12/25 01:33:51;;;;;;;1.10;0.40;;;;;;;;;;4957356;28;20051;-89
2023/12/25 01:36:30;;;;;;;0.50;0.40;;;;;;;;;;4958979;28;20035;-89
2023/12/25 01:39:05;;;;;;;0.75;0.60;;;;;;;;;;4975027;28;20091;-89
2023/12/25 01:41:35;;;;;;;0.77;0.50;;;;;;;;;;4983063;23;20134;-88
2023/12/25 01:44:12;;;;;;;0.57;0.50;;;;;;;;;;4954294;28;20046;-88
2023/12/25 01:47:12;;;;;;;0.65;0.50;;;;;;;;;;4988079;28;20061;-88
2023/12/25 01:49:39;;;;;;;0.52;0.50;;;;;;;;;;4972046;28;20023;-88
2023/12/25 01:52:06;;;;;;;0.60;0.40;;;;;;;;;;4956979;28;20067;-88
2023/12/25 01:54:36;;;;;;;0.50;0.50;;;;;;;;;;4955286;29;20110;-88
2023/12/25 01:57:13;;;;;;;;;;;;;;;;;;4942811;29;20082;-88
2023/12/25 02:00:11;;;;;;;0.57;0.50;;;;;;;;;;4977080;28;20009;-89
2023/12/25 02:02:45;;;;;;;1.02;0.50;;;;;;;;;;4931259;29;20518;-88
2023/12/25 02:05:32;;;;;;;1.40;0.50;;;;;;;;;;4971038;28;20034;-88
2023/12/25 02:08:01;;;;;;;0.82;0.43;;;;;;;;;;4972225;28;20058;-87
2023/12/25 02:10:36;;;;;;;0.35;0.35;;;;;;;;;;4957228;29;20043;-87
2023/12/25 02:13:08;;;;;;;2.17;0.50;;;;;;;;;;4953990;29;20031;-87
2023/12/25 02:15:36;;;;;;;0.70;0.25;;;;;;;;;;4947906;28;20508;-88
2023/12/25 02:18:07;;;;;;;0.63;0.30;;;;;;;;;;4956599;28;20035;-88
2023/12/25 02:20:37;;;;;;;1.23;0.30;;;;;;;;;;4954478;29;20510;-87
2023/12/25 02:23:13;;;;;;;1.85;0.50;;;;;;;;;;4940800;29;20039;-88
2023/12/25 02:25:56;;;;;;;0.30;0.30;;;;;;;;;;4968916;28;20039;-88
2023/12/25 02:28:41;;;;;;;0.20;0.17;;;;;;;;;;4961367;28;20046;-87
2023/12/25 02:31:11;;;;;;;1.25;0.32;;;;;;;;;;4957013;29;20066;-87
2023/12/25 02:33:44;;;;;;;1.92;0.40;;;;;;;;;;4956051;28;20110;-88
2023/12/25 02:36:18;;;;;;;0.52;0.30;;;;;;;;;;4938698;29;20027;-87
2023/12/25 02:38:51;;;;;;;0.95;0.30;;;;;;;;;;4955400;28;20035;-87
2023/12/25 02:41:32;;;;;;;0.28;0.20;;;;;;;;;;4955696;29;20126;-88
2023/12/25 02:44:06;;;;;;;0.60;0.30;;;;;;;;;;4961030;29;20047;-88
2023/12/25 02:46:37;;;;;;;0.52;0.30;;;;;;;;;;4961764;29;20114;-88
2023/12/25 02:49:20;;;;;;;0.47;0.20;;;;;;;;;;4959462;29;20030;-88
2023/12/25 02:51:45;;;;;;;2.30;0.30;;;;;;;;;;4960991;29;20046;-89
2023/12/25 02:54:14;;;;;;;0.50;0.25;;;;;;;;;;4959920;29;20106;-89
2023/12/25 02:56:58;;;;;;;1.13;0.50;;;;;;;;;;4979393;28;20034;-89
2023/12/25 02:59:32;;;;;;;2.08;0.50;;;;;;;;;;4942130;29;20047;-88
2023/12/25 03:02:05;;;;;;;1.10;0.47;;;;;;;;;;4941945;29;20050;-88
2023/12/25 03:04:36;;;;;;;1.05;0.50;;;;;;;;;;4956778;28;20043;-87
2023/12/25 03:07:15;;;;;;;0.77;0.38;;;;;;;;;;4938465;29;20036;-89
2023/12/25 03:13:17;;;;;;;2.22;0.70;;;;;;;;;;4946768;23;20048;-88
2023/12/25 03:15:49;;;;;;;1.20;0.47;;;;;;;;;;4947665;28;20071;-88
2023/12/25 03:18:48;;;;;;;1.20;0.50;;;;;;;;;;4961390;28;20043;-89
2023/12/25 03:21:17;;;;;;;0.57;0.38;;;;;;;;;;4965872;28;20031;-88
2023/12/25 03:24:02;;;;;;;0.40;0.30;;;;;;;;;;4965338;28;20517;-88
2023/12/25 03:26:35;;;;;;;1.08;0.43;;;;;;;;;;4951083;29;20114;-90
2023/12/25 03:29:08;;;;;;;1.80;0.40;;;;;;;;;;4933822;29;20024;-88
2023/12/25 03:31:39;;;;;;;1.05;0.40;;;;;;;;;;4964859;28;20035;-88
2023/12/25 03:34:20;;;;;;;0.50;0.30;;;;;;;;;;4954142;29;20031;-88
2023/12/25 03:36:57;;;;;;;1.42;0.38;;;;;;;;;;4963128;28;20032;-87
2023/12/25 03:39:28;;;;;;;1.23;0.40;;;;;;;;;;4954187;29;20070;-88
2023/12/25 03:42:03;;;;;;;0.60;0.17;;;;;;;;;;4947860;28;20099;-88
2023/12/25 03:44:39;;;;;;;0.40;0.20;;;;;;;;;;4945955;28;20699;-88
2023/12/25 03:47:16;;;;;;;2.08;0.32;;;;;;;;;;4953399;29;20043;-87
2023/12/25 03:49:44;;;;;;;0.55;0.30;;;;;;;;;;4956971;29;20034;-88
2023/12/25 03:52:18;;;;;;;0.68;0.20;;;;;;;;;;4954226;28;20015;-87
2023/12/25 03:54:56;;;;;;;0.35;0.30;;;;;;;;;;4940820;29;20041;-87
2023/12/25 03:57:27;;;;;;;1.67;0.30;;;;;;;;;;4967694;28;20035;-87
2023/12/25 04:00:18;;;;;;;1.17;0.40;;;;;;;;;;4939746;29;20035;-87
2023/12/25 04:02:46;;;;;;;;;;;;;;;;;;4955497;29;20042;-87
2023/12/25 04:05:17;;;;;;;0.30;0.20;;;;;;;;;;4955679;28;19915;-89
2023/12/25 04:07:45;;;;;;;0.55;0.28;;;;;;;;;;4938421;29;20103;-88
2023/12/25 04:10:35;;;;;;;0.50;0.30;;;;;;;;;;4951344;29;20133;-87
2023/12/25 04:13:16;;;;;;;0.98;0.70;;;;;;;;;;4951056;28;20040;-87
2023/12/25 04:15:48;;;;;;;3.47;1.38;;;;;;;;;;4940795;29;20054;-88
2023/12/25 04:18:22;;;;;;;0.38;0.30;;;;;;;;;;4970123;28;20039;-88
2023/12/25 04:20:50;;;;;;;2.83;1.50;;;;;;;;;;4953359;28;20035;-88
2023/12/25 04:23:22;;;;;;;2.35;1.23;;;;;;;;;;4956741;28;20043;-88
2023/12/25 04:26:07;;;;;;;2.40;1.55;;;;;;;;;;4952567;29;20038;-89
2023/12/25 04:28:38;;;;;;;3.78;2.20;;;;;;;;;;4938254;29;20051;-88
2023/12/25 04:31:09;;;;;;;2.17;1.70;;;;;;;;;;4961752;28;20057;-88
2023/12/25 04:33:49;;;;;;;1.90;1.40;;;;;;;;;;4957232;29;20199;-87
2023/12/25 04:36:28;;;;;;;2.85;1.17;;;;;;;;;;4938357;29;20032;-88
2023/12/25 04:39:02;;;;;;;1.35;1.05;;;;;;;;;;4953639;28;20040;-88
2023/12/25 04:41:34;;;;;;;1.02;0.80;;;;;;;;;;4957191;29;20036;-88
2023/12/25 04:44:07;;;;;;;0.82;0.60;;;;;;;;;;4956702;29;20023;-88
2023/12/25 04:46:42;;;;;;;1.70;0.80;;;;;;;;;;4953229;29;20040;-87
2023/12/25 04:49:16;;;;;;;1.08;0.50;;;;;;;;;;4968872;28;20031;-88
2023/12/25 04:51:44;;;;;;;0.35;0.32;;;;;;;;;;4925608;29;20674;-88
2023/12/25 04:54:17;;;;;;;0.50;0.40;;;;;;;;;;4940986;29;20047;-89
2023/12/25 04:56:52;;;;;;;1.00;0.70;;;;;;;;;;4970428;28;20046;-89
2023/12/25 04:59:32;;;;;;;2.33;0.82;;;;;;;;;;4942474;29;20035;-88
2023/12/25 05:02:09;;;;;;;1.48;0.55;;;;;;;;;;4947735;29;20031;-89
2023/12/25 05:04:39;;;;;;;1.80;0.88;;;;;;;;;;4953279;29;20039;-89
2023/12/25 05:07:10;;;;;;;1.85;0.80;;;;;;;;;;4954743;28;20046;-88
2023/12/25 05:09:47;;;;;;;1.08;0.70;;;;;;;;;;4937355;29;20027;-88
2023/12/25 05:12:25;;;;;;;0.70;0.55;;;;;;;;;;4966857;28;20048;-88
2023/12/25 05:15:07;;;;;;;1.85;0.60;;;;;;;;;;4970602;28;20035;-89
2023/12/25 05:17:35;;;;;;;0.93;0.50;;;;;;;;;;4940693;29;20075;-89
2023/12/25 05:20:10;;;;;;;0.80;0.60;;;;;;;;;;4971274;28;20069;-90
2023/12/25 05:22:40;;;;;;;0.60;0.40;;;;;;;;;;4949753;29;20042;-89
2023/12/25 05:25:09;;;;;;;1.35;0.52;;;;;;;;;;4958125;28;20047;-88
2023/12/25 05:27:38;;;;;;;0.70;0.50;;;;;;;;;;4953334;28;20051;-87
2023/12/25 05:30:10;;;;;;;1.10;0.50;;;;;;;;;;4933906;29;20494;-88
2023/12/25 05:32:48;;;;;;;1.48;0.70;;;;;;;;;;4956906;28;20035;-88
2023/12/25 05:35:21;;;;;;;0.60;0.60;;;;;;;;;;4933836;29;20134;-87
2023/12/25 05:37:53;;;;;;;1.43;0.90;;;;;;;;;;4955034;29;20494;-87
2023/12/25 05:40:25;;;;;;;3.00;0.85;;;;;;;;;;4954755;28;20042;-88
2023/12/25 05:43:00;;;;;;;0.98;0.82;;;;;;;;;;4949839;29;20035;-87
2023/12/25 05:45:34;;;;;;;1.08;0.98;;;;;;;;;;4965976;28;20063;-87
2023/12/25 05:48:03;;;;;;;2.22;0.93;;;;;;;;;;4951877;29;20091;-88
2023/12/25 05:50:42;;;;;;;1.15;0.70;;;;;;;;;;4953961;28;20039;-89
2023/12/25 05:53:14;;;;;;;0.60;0.60;;;;;;;;;;4950109;28;20033;-87
2023/12/25 05:55:51;;;;;;;1.80;0.70;;;;;;;;;;4938487;29;20051;-87
2023/12/25 05:58:26;;;;;;;0.80;0.57;;;;;;;;;;4967656;28;20448;-88
2023/12/25 06:01:02;;;;;;;0.93;0.50;;;;;;;;;;4947813;28;20454;-88
2023/12/25 06:03:42;;;;;;;1.25;0.60;;;;;;;;;;4942089;29;20062;-88
2023/12/25 06:06:10;;;;;;;2.00;0.57;;;;;;;;;;4941370;29;20043;-88
2023/12/25 06:08:46;;;;;;;2.65;0.60;;;;;;;;;;4949733;28;20088;-88
2023/12/25 06:11:18;;;;;;;0.60;0.40;;;;;;;;;;4940761;29;20051;-88
2023/12/25 06:13:48;;;;;;;0.20;0.20;;;;;;;;;;4955063;29;20024;-89
2023/12/25 06:16:20;;;;;;;0.95;0.40;;;;;;;;;;4951785;29;20043;-88
2023/12/25 06:18:49;;;;;;;1.08;0.40;;;;;;;;;;4933268;29;20036;-89
2023/12/25 06:21:15;;;;;;;0.40;0.30;;;;;;;;;;4949711;28;20035;-89
2023/12/25 06:23:55;;;;;;;0.38;0.38;;;;;;;;;;4949927;29;20031;-88
2023/12/25 06:26:28;;;;;;;0.95;0.30;;;;;;;;;;4931568;29;20046;-88
2023/12/25 06:29:00;;;;;;;0.30;0.30;;;;;;;;;;4943206;29;20036;-89
2023/12/25 06:31:50;;;;;;;0.43;0.30;;;;;;;;;;4945844;28;20047;-89
2023/12/25 06:37:48;;;;;;;0.30;0.30;;;;;;;;;;4944032;29;20036;-91
2023/12/25 06:40:29;;;;;;;0.30;0.20;;;;;;;;;;4935021;29;20040;-89
2023/12/25 06:43:31;;;;;;;0.30;0.30;;;;;;;;;;4965427;28;20039;-89
2023/12/25 06:48:55;;;;;;;1.17;0.30;;;;;;;;;;4936147;29;20047;-89
2023/12/25 06:51:24;;;;;;;0.40;0.30;;;;;;;;;;4942831;29;20086;-90
2023/12/25 06:54:02;;;;;;;0.93;0.30;;;;;;;;;;4951795;29;20066;-90
2023/12/25 06:56:48;;;;;;;0.32;0.30;;;;;;;;;;4952319;28;20043;-87
2023/12/25 06:59:51;;;;;;;0.20;0.20;;;;;;;;;;4956447;28;20034;-89
2023/12/25 07:02:21;;;;;;;0.35;0.20;;;;;;;;;;4969045;28;20047;-87
2023/12/25 07:04:55;;;;;;;0.20;0.20;;;;;;;;;;4970680;28;20046;-87
2023/12/25 07:07:25;;;;;;;0.57;0.35;;;;;;;;;;4942027;29;20046;-87
2023/12/25 07:10:02;;;;;;;;;;;;;;;;;;4950541;29;20397;-89
2023/12/25 07:12:31;;;;;;;0.82;0.30;;;;;;;;;;4946916;28;19925;-88
2023/12/25 07:15:02;;;;;;;0.20;0.20;;;;;;;;;;4940947;28;20114;-88
2023/12/25 07:17:32;;;;;;;0.15;0.15;;;;;;;;;;4944101;29;20042;-88
2023/12/25 07:19:58;;;;;;;0.20;0.20;;;;;;;;;;4947858;29;20098;-90
2023/12/25 07:22:24;;;;;;;0.77;0.40;;;;;;;;;;4947547;29;20505;-88
2023/12/25 07:24:50;;;;;;;0.60;0.30;;;;;;;;;;4943219;29;20030;-89
2023/12/25 07:27:16;;;;;;;0.20;0.20;;;;;;;;;;4951943;29;20513;-90
2023/12/25 07:29:41;;;;;;;0.20;0.20;;;;;;;;;;4955453;28;20023;-88
2023/12/25 07:32:07;;;;;;;0.30;0.30;;;;;;;;;;4940945;28;20032;-88
2023/12/25 07:34:33;;;;;;;0.25;0.22;;;;;;;;;;4958143;29;20078;-88
2023/12/25 07:36:58;;;;;;;3.58;0.60;;;;;;;;;;4948662;29;20043;-89
2023/12/25 07:39:24;;;;;;;0.65;0.45;;;;;;;;;;4960779;28;20032;-88
2023/12/25 07:41:49;;;;;;;0.50;0.50;;;;;;;;;;4953557;29;20031;-88
2023/12/25 07:44:16;;;;;;;2.95;0.88;;;;;;;;;;4955331;29;20039;-87
2023/12/25 07:46:41;;;;;;;1.13;1.00;;;;;;;;;;4951153;29;20067;-88
2023/12/25 07:49:07;;;;;;;1.50;0.80;;;;;;;;;;4946539;28;20031;-90
2023/12/25 07:51:33;;;;;;;1.13;0.80;;;;;;;;;;4949250;29;20079;-88
2023/12/25 07:53:58;;;;;;;0.88;0.60;;;;;;;;;;4941615;29;20043;-88
2023/12/25 07:56:25;;;;;;;0.93;0.70;;;;;;;;;;4956722;28;20134;-89
2023/12/25 07:58:53;;;;;;;0.60;0.60;;;;;;;;;;4946344;28;20035;-89
2023/12/25 08:01:37;;;;;;;0.70;0.60;;;;;;;;;;4963377;28;20043;-87
2023/12/25 08:04:03;;;;;;;1.23;0.98;;;;;;;;;;4952411;29;20039;-90
2023/12/25 08:06:38;;;;;;;2.60;1.30;;;;;;;;;;4944218;29;20055;-89
2023/12/25 08:09:15;;;;;;;2.58;1.70;;;;;;;;;;4933248;29;20027;-88
2023/12/25 08:11:43;;;;;;;2.45;1.40;;;;;;;;;;4949008;28;20043;-87
2023/12/25 08:14:09;;;;;;;2.47;1.38;;;;;;;;;;4947081;29;20039;-88
2023/12/25 08:16:37;;;;;;;2.90;1.60;;;;;;;;;;4946400;28;20047;-89
2023/12/25 08:19:06;;;;;;;3.40;1.75;;;;;;;;;;4928736;28;20119;-88
2023/12/25 08:21:36;;;;;;;3.92;2.85;;;;;;;;;;4945572;29;20031;-89
2023/12/25 08:24:07;;;;;;;2.75;1.92;;;;;;;;;;4944776;28;20052;-89
2023/12/25 08:26:36;;;;;;;2.63;1.70;;;;;;;;;;4939979;29;20090;-88
2023/12/25 08:29:02;;;;;;;3.30;1.85;;;;;;;;;;4942436;29;20034;-88
2023/12/25 08:31:27;;;;;;;5.03;2.08;;;;;;;;;;4946588;28;20039;-89
2023/12/25 08:33:55;;;;;;;6.05;1.10;;;;;;;;;;4949122;29;20038;-85
2023/12/25 08:36:26;;;;;;;8.75;2.30;;;;;;;;;;4952939;28;20054;-88
2023/12/25 08:39:23;;;;;;;4.45;2.40;;;;;;;;;;4949241;29;20031;-88
2023/12/25 08:42:41;;;;;;;4.82;2.65;;;;;;;;;;4931207;29;20032;-89
2023/12/25 08:45:46;;;;;;;4.32;2.30;;;;;;;;;;4918673;29;20040;-90
2023/12/25 08:48:37;;;;;;;4.00;2.45;;;;;;;;;;4933906;29;20051;-88
2023/12/25 08:51:09;;;;;;;4.68;3.05;;;;;;;;;;4905585;29;20047;-89
2023/12/25 08:53:53;;;;;;;3.63;1.63;;;;;;;;;;4928524;29;20183;-89
2023/12/25 08:59:38;;;;;;;4.80;2.55;;;;;;;;;;4929836;29;20055;-88
2023/12/25 09:05:27;;;;;;;3.72;2.33;;;;;;;;;;4928665;28;20147;-88
2023/12/25 09:11:13;;;;;;;3.17;1.40;;;;;;;;;;4920847;29;20062;-88
2023/12/25 09:14:04;;;;;;;5.25;2.40;;;;;;;;;;4907987;29;20036;-90
2023/12/25 09:16:58;;;;;;;3.40;1.30;;;;;;;;;;4925657;29;20058;-90
2023/12/25 09:19:23;;;;;;;1.88;1.13;;;;;;;;;;4926027;29;20044;-89
2023/12/25 09:22:20;;;;;;;1.30;0.70;;;;;;;;;;4926944;29;20032;-88
2023/12/25 09:24:57;;;;;;;1.40;0.90;;;;;;;;;;4936799;29;20120;-88
2023/12/25 09:27:32;;;;;;;3.72;1.10;;;;;;;;;;4912674;29;20391;-88
2023/12/25 09:30:36;;;;;;;0.93;0.80;;;;;;;;;;4917130;29;20089;-88
2023/12/25 09:33:39;;;;;;;2.72;1.20;;;;;;;;;;4926429;29;20118;-88
2023/12/25 09:36:38;;;;;;;2.20;1.13;;;;;;;;;;4913058;29;20548;-88
2023/12/25 09:39:06;;;;;;;1.27;0.85;;;;;;;;;;4929621;28;20032;-88
2023/12/25 09:42:13;;;;;;;1.60;1.00;;;;;;;;;;4939562;29;20048;-89
2023/12/25 09:45:08;;;;;;;1.77;1.02;;;;;;;;;;4930244;29;20032;-88
2023/12/25 09:47:58;;;;;;;1.33;0.80;;;;;;;;;;4937770;28;20388;-87
2023/12/25 09:50:35;;;;;;;1.55;0.70;;;;;;;;;;4921281;29;20048;-90
2023/12/25 09:53:21;;;;;;;0.52;0.52;;;;;;;;;;4922880;29;20043;-90
2023/12/25 09:56:40;;;;;;;0.65;0.50;;;;;;;;;;4938504;29;20136;-88
2023/12/25 09:59:15;;;;;;;0.60;0.40;;;;;;;;;;4943331;29;20044;-88
2023/12/25 10:02:05;;;;;;;0.50;0.28;;;;;;;;;;4955075;23;20149;-89
2023/12/25 10:05:06;;;;;;;0.40;0.35;;;;;;;;;;4931745;29;20062;-89
2023/12/25 10:07:49;;;;;;;0.80;0.50;;;;;;;;;;4940266;29;20392;-89
2023/12/25 10:10:21;;;;;;;0.30;0.30;;;;;;;;;;4929133;29;20127;-87
2023/12/25 10:13:01;;;;;;;0.93;0.40;;;;;;;;;;4947821;29;20050;-87
2023/12/25 10:15:40;;;;;;;1.58;0.30;;;;;;;;;;4920816;29;20130;-88
2023/12/25 10:18:18;;;;;;;1.50;0.55;;;;;;;;;;4941230;29;20259;-88
2023/12/25 10:22:03;;;;;;;0.80;0.65;;;;;;;;;;4944679;29;20106;-91
2023/12/25 10:24:52;;;;;;;0.55;0.38;;;;;;;;;;4930675;29;20067;-87
2023/12/25 10:27:44;;;;;;;0.85;0.60;;;;;;;;;;4956429;28;20595;-89
2023/12/25 10:30:28;;;;;;;0.80;0.47;;;;;;;;;;4943616;29;20037;-89
2023/12/25 10:33:33;;;;;;;0.60;0.40;;;;;;;;;;4938754;29;20043;-88
2023/12/25 10:36:09;;;;;;;0.68;0.40;;;;;;;;;;4925001;29;20182;-87
2023/12/25 10:38:45;;;;;;;1.08;0.77;;;;;;;;;;4934570;29;20498;-89
2023/12/25 10:41:33;;;;;;;1.80;1.00;;;;;;;;;;4959604;28;20044;-89
2023/12/25 10:44:20;;;;;;;1.10;0.80;;;;;;;;;;4938358;29;20453;-88
2023/12/25 10:46:54;;;;;;;0.75;0.60;;;;;;;;;;4933685;29;20032;-87
2023/12/25 10:49:34;;;;;;;0.73;0.40;;;;;;;;;;4943038;29;20035;-88
2023/12/25 10:52:37;;;;;;;;;;;;;;;;;;;;;
2023/12/25 10:55:14;;;;;;;2.90;1.10;;;;;;;;;;4942826;28;20278;-89
2023/12/25 10:58:03;;;;;;;1.55;1.00;;;;;;;;;;4937973;29;20056;-89
2023/12/25 11:00:54;;;;;;;3.40;1.08;;;;;;;;;;4933393;29;20062;-88
2023/12/25 11:04:03;;;;;;;3.33;1.25;;;;;;;;;;4939564;29;20454;-89
2023/12/25 11:06:38;;;;;;;2.83;1.60;;;;;;;;;;4932588;29;20050;-89
2023/12/25 11:09:05;;;;;;;0.85;0.70;;;;;;;;;;4931020;29;20040;-90
2023/12/25 11:11:42;;;;;;;0.75;0.30;;;;;;;;;;4939837;29;20056;-89
2023/12/25 11:14:13;;;;;;;1.55;0.40;;;;;;;;;;4931033;29;20024;-89
2023/12/25 11:16:46;;;;;;;0.50;0.38;;;;;;;;;;4938142;29;20438;-87
2023/12/25 11:19:21;;;;;;;;;;;;;;;;;;4940010;29;20513;-88
2023/12/25 11:21:50;;;;;;;0.40;0.40;;;;;;;;;;4941857;29;19921;-88
2023/12/25 11:24:29;;;;;;;1.23;0.40;;;;;;;;;;4924329;28;20549;-88
2023/12/25 11:27:16;;;;;;;0.70;0.40;;;;;;;;;;4922598;29;20368;-88
2023/12/25 11:29:57;;;;;;;0.37;0.37;;;;;;;;;;4911244;29;20060;-88
2023/12/25 11:32:45;;;;;;;0.88;0.50;;;;;;;;;;4943254;29;20043;-89
2023/12/25 11:35:44;;;;;;;0.90;0.50;;;;;;;;;;4920297;29;20067;-88
2023/12/25 11:38:24;;;;;;;0.63;0.50;;;;;;;;;;4960830;28;20035;-88
2023/12/25 11:41:16;;;;;;;;;;;;;;;;;;;;;
2023/12/25 11:52:12;;;;;;;0.70;0.60;;;;;;;;;;4926803;29;20420;-90
2023/12/25 11:55:39;;;;;;;2.50;0.55;;;;;;;;;;4928273;29;20503;-89
2023/12/25 11:58:55;;;;;;;1.02;0.60;;;;;;;;;;4981444;28;20094;-89
2023/12/25 12:01:22;;;;;;;1.00;0.50;;;;;;;;;;4968952;28;20044;-89
2023/12/25 12:03:59;;;;;;;0.73;0.52;;;;;;;;;;4940375;29;20516;-88
2023/12/25 12:06:26;;;;;;;0.90;0.70;;;;;;;;;;4935275;29;20119;-88
2023/12/25 12:09:11;;;;;;;0.80;0.65;;;;;;;;;;4945071;28;20031;-89
2023/12/25 12:11:37;;;;;;;1.13;0.80;;;;;;;;;;4946713;28;20043;-88
2023/12/25 12:14:15;;;;;;;0.88;0.60;;;;;;;;;;4936806;29;20043;-88
2023/12/25 12:16:54;;;;;;;0.82;0.70;;;;;;;;;;4938152;29;20041;-87
2023/12/25 12:19:34;;;;;;;0.57;0.50;;;;;;;;;;4940242;29;20039;-90
2023/12/25 12:22:12;;;;;;;0.95;0.63;;;;;;;;;;4936551;29;20432;-89
2023/12/25 12:25:13;;;;;;;0.68;0.52;;;;;;;;;;4945780;29;20091;-94
2023/12/25 12:27:46;;;;;;;1.13;0.80;;;;;;;;;;4952381;29;20031;-91
2023/12/25 12:30:32;;;;;;;0.90;0.60;;;;;;;;;;4924073;29;20043;-90
2023/12/25 12:33:16;;;;;;;0.85;0.60;;;;;;;;;;4936594;29;20516;-89
2023/12/25 12:36:07;;;;;;;0.85;0.55;;;;;;;;;;4945235;29;20108;-89
2023/12/25 12:38:31;;;;;;;1.10;0.80;;;;;;;;;;4947726;28;20046;-88
2023/12/25 12:40:57;;;;;;;1.20;0.70;;;;;;;;;;4953739;29;20438;-87
2023/12/25 12:43:27;;;;;;;0.77;0.50;;;;;;;;;;4958387;29;20039;-90
2023/12/25 12:45:53;;;;;;;0.60;0.60;;;;;;;;;;4950888;29;20031;-90
2023/12/25 12:48:22;;;;;;;1.85;0.73;;;;;;;;;;4956977;28;20047;-91
2023/12/25 12:51:00;;;;;;;1.23;0.77;;;;;;;;;;4942802;29;20047;-88
2023/12/25 12:53:39;;;;;;;1.30;0.70;;;;;;;;;;4949178;29;20042;-88
2023/12/25 12:56:18;;;;;;;;;;;;;;;;;;;;;
2023/12/25 12:58:46;;;;;;;0.80;0.60;;;;;;;;;;4946465;29;20071;-89
2023/12/25 13:01:16;;;;;;;1.00;0.50;;;;;;;;;;4946308;29;20043;-91
2023/12/25 13:03:56;;;;;;;0.70;0.60;;;;;;;;;;4942922;29;20031;-88
2023/12/25 13:06:34;;;;;;;0.40;0.40;;;;;;;;;;4946714;29;20070;-88
2023/12/25 13:09:11;;;;;;;0.73;0.55;;;;;;;;;;4948872;28;20034;-88
2023/12/25 13:11:42;;;;;;;0.45;0.40;;;;;;;;;;4950390;28;20059;-90
2023/12/25 13:14:17;;;;;;;0.88;0.57;;;;;;;;;;4950958;28;20115;-89
2023/12/25 13:16:48;;;;;;;1.45;0.70;;;;;;;;;;4950491;29;20268;-88
2023/12/25 13:19:29;;;;;;;1.50;0.43;;;;;;;;;;4944824;28;20036;-88
2023/12/25 13:22:05;;;;;;;0.60;0.50;;;;;;;;;;4948781;29;20540;-89
2023/12/25 13:24:41;;;;;;;1.00;0.50;;;;;;;;;;4953978;28;20043;-89
2023/12/25 13:27:07;;;;;;;1.23;0.68;;;;;;;;;;4949351;29;20441;-90
2023/12/25 13:29:44;;;;;;;0.63;0.43;;;;;;;;;;4947076;29;20042;-90
2023/12/25 13:32:16;;;;;;;0.98;0.50;;;;;;;;;;4950236;28;20040;-90
2023/12/25 13:34:50;;;;;;;0.60;0.52;;;;;;;;;;4945272;29;20036;-89
2023/12/25 13:37:28;;;;;;;0.50;0.40;;;;;;;;;;4935040;29;20413;-88
2023/12/25 13:39:55;;;;;;;0.50;0.50;;;;;;;;;;4946930;29;20039;-89
2023/12/25 13:42:30;;;;;;;;;;;;;;;;;;4945895;29;20067;-88
2023/12/25 13:45:01;;;;;;;0.50;0.40;;;;;;;;;;4950104;29;19918;-89
2023/12/25 13:47:49;;;;;;;0.60;0.43;;;;;;;;;;4946178;29;20398;-89
2023/12/25 13:50:30;;;;;;;1.08;0.52;;;;;;;;;;4949603;29;20066;-91
2023/12/25 13:52:55;;;;;;;0.43;0.40;;;;;;;;;;4948372;28;20059;-87
2023/12/25 13:55:32;;;;;;;0.73;0.40;;;;;;;;;;4935080;29;20051;-89
2023/12/25 14:01:04;;;;;;;0.55;0.40;;;;;;;;;;4945590;29;20043;-89
2023/12/25 14:03:34;;;;;;;0.68;0.50;;;;;;;;;;4935772;29;20052;-87
2023/12/25 14:06:00;;;;;;;0.52;0.40;;;;;;;;;;4945106;28;20118;-90
2023/12/25 14:08:32;;;;;;;0.55;0.38;;;;;;;;;;4943906;28;20095;-89
2023/12/25 14:11:03;;;;;;;0.40;0.30;;;;;;;;;;4946974;29;20046;-88
2023/12/25 14:13:38;;;;;;;1.10;0.40;;;;;;;;;;4944970;29;20134;-89
2023/12/25 14:16:43;;;;;;;;;;;;;;;;;;;;;
2023/12/25 14:19:16;;;;;;;1.02;0.38;;;;;;;;;;4941732;29;20036;-89
2023/12/25 14:21:54;;;;;;;0.55;0.38;;;;;;;;;;4943082;29;20397;-89
2023/12/25 14:24:58;;;;;;;1.45;0.32;;;;;;;;;;4916506;29;20051;-89
2023/12/25 14:27:24;;;;;;;;;;;;;;;;;;4927919;29;20039;-89
2023/12/25 14:30:05;;;;;;;0.30;0.30;;;;;;;;;;4923572;29;19922;-89
2023/12/25 14:32:50;;;;;;;0.50;0.40;;;;;;;;;;4937488;29;20423;-90
2023/12/25 14:35:24;;;;;;;0.55;0.40;;;;;;;;;;4957492;28;20050;-89
2023/12/25 14:37:58;;;;;;;0.30;0.30;;;;;;;;;;4936152;29;20039;-89
2023/12/25 14:40:50;;;;;;;0.40;0.40;;;;;;;;;;4934132;29;20091;-89
2023/12/25 14:43:46;;;;;;;0.45;0.38;;;;;;;;;;4939494;29;20409;-88
2023/12/25 14:46:36;;;;;;;1.40;0.60;;;;;;;;;;4946284;29;20577;-89
2023/12/25 14:49:23;;;;;;;0.50;0.50;;;;;;;;;;4943289;28;20046;-89
2023/12/25 14:51:57;;;;;;;0.50;0.50;;;;;;;;;;4945917;28;20039;-88
2023/12/25 14:54:28;;;;;;;2.58;0.32;;;;;;;;;;4941233;29;20047;-89
2023/12/25 14:57:00;;;;;;;0.65;0.43;;;;;;;;;;4938510;29;20087;-88
2023/12/25 14:59:41;;;;;;;1.00;0.50;;;;;;;;;;4943445;29;20648;-90
2023/12/25 15:02:06;;;;;;;0.85;0.40;;;;;;;;;;4917699;29;20047;-89
2023/12/25 15:04:32;;;;;;;1.17;0.50;;;;;;;;;;4942830;29;20125;-89
2023/12/25 15:06:57;;;;;;;0.73;0.45;;;;;;;;;;4945955;29;20035;-88
2023/12/25 15:09:23;;;;;;;1.00;0.65;;;;;;;;;;4943327;29;20406;-89
2023/12/25 15:11:49;;;;;;;1.05;0.60;;;;;;;;;;4930103;29;20410;-88
2023/12/25 15:14:15;;;;;;;0.40;0.40;;;;;;;;;;4945083;29;20047;-88
2023/12/25 15:16:41;;;;;;;0.40;0.32;;;;;;;;;;4952030;28;20035;-85
2023/12/25 15:19:10;;;;;;;0.70;0.50;;;;;;;;;;4938059;29;20034;-90
2023/12/25 15:21:36;;;;;;;0.30;0.30;;;;;;;;;;4933304;28;20040;-88
2023/12/25 15:24:04;;;;;;;0.82;0.40;;;;;;;;;;4938664;29;20024;-89
2023/12/25 15:26:30;;;;;;;0.60;0.50;;;;;;;;;;4943616;29;20663;-89
2023/12/25 15:28:55;;;;;;;0.63;0.45;;;;;;;;;;4943931;29;20464;-89
2023/12/25 15:31:22;;;;;;;0.38;0.38;;;;;;;;;;4942906;28;20102;-89
2023/12/25 15:33:48;;;;;;;0.55;0.50;;;;;;;;;;4922240;29;20035;-89
2023/12/25 15:36:13;;;;;;;0.45;0.40;;;;;;;;;;4940311;29;20585;-90
2023/12/25 15:38:39;;;;;;;0.45;0.35;;;;;;;;;;4943859;28;20529;-90
2023/12/25 15:41:06;;;;;;;0.43;0.40;;;;;;;;;;4923637;28;20036;-90
2023/12/25 15:43:32;;;;;;;0.60;0.55;;;;;;;;;;4944110;29;20115;-89
2023/12/25 15:45:58;;;;;;;0.55;0.52;;;;;;;;;;4937014;29;20035;-88
2023/12/25 15:48:23;;;;;;;0.70;0.50;;;;;;;;;;4950143;28;20056;-89
2023/12/25 15:50:50;;;;;;;2.47;0.52;;;;;;;;;;4954943;28;20074;-90
2023/12/25 15:53:16;;;;;;;0.55;0.52;;;;;;;;;;4967894;28;20107;-90
2023/12/25 15:55:42;;;;;;;0.80;0.60;;;;;;;;;;4950615;29;20039;-89
2023/12/25 15:58:07;;;;;;;1.15;0.70;;;;;;;;;;4949437;29;20028;-92
2023/12/25 16:00:33;;;;;;;1.13;0.85;;;;;;;;;;4965266;28;20027;-90
2023/12/25 16:02:58;;;;;;;0.80;0.47;;;;;;;;;;4944430;29;20042;-90
2023/12/25 16:05:27;;;;;;;0.70;0.50;;;;;;;;;;4951847;28;20038;-90
2023/12/25 16:07:53;;;;;;;0.68;0.50;;;;;;;;;;4947386;29;20114;-89
2023/12/25 16:10:22;;;;;;;0.80;0.40;;;;;;;;;;4951397;29;20059;-89
2023/12/25 16:12:51;;;;;;;0.90;0.60;;;;;;;;;;4943930;29;20044;-91
2023/12/25 16:15:17;;;;;;;0.90;0.70;;;;;;;;;;4953121;29;20501;-90
2023/12/25 16:17:43;;;;;;;0.52;0.40;;;;;;;;;;4951276;28;20082;-89